Latest Weather Observations for Portland Harbour

IDV60801

Issued at 9:35 pm EST Saturday 20 September 2014 (issued every 30 minutes, with the page automatically refreshed every 10 minutes)

About weather observations | Map of weather stations | Latest weather observations for VIC | Other Formats
Station Details ID: 090192 Name: PORTLAND NTC AWS Lat: -38.34 Lon: 141.61 Height: 0.0 m
Data from the previous 72 hours. | See also: Recent months for locations in Victoria
Date/Time
EST
Temp
°C
App
Temp
°C
Dew
Point
Rel
Hum
%
Delta-T
°C
Wind Press
QNH
hPa
Press
MSL
hPa
Rain
since 9 am
mm
Dir
 
Spd
km/h
Gust
km/h
Spd
kts
Gust
kts
20/09:30pm 12.9 - - - - E 11 15 6 8 1030.7 1030.7 -
20/09:00pm 12.9 - - - - E 13 17 7 9 1030.5 1030.5 -
20/08:30pm 13.0 - - - - E 13 19 7 10 1030.3 1030.3 -
20/08:00pm 12.9 - - - - SSE 11 19 6 10 1030.5 1030.5 -
20/07:30pm 13.2 - - - - ESE 15 20 8 11 1030.3 1030.3 -
20/07:00pm 13.4 - - - - ESE 15 22 8 12 1030.0 1030.0 -
20/06:30pm 13.4 - - - - ESE 15 20 8 11 1029.9 1029.9 -
20/06:00pm 13.5 - - - - SE 15 20 8 11 1029.6 1029.6 -
20/05:30pm 13.7 - - - - SSE 17 24 9 13 1029.5 1029.5 -
20/05:00pm 13.7 - - - - SSE 13 17 7 9 1029.3 1029.3 -
20/04:30pm 13.7 - - - - SSE 15 20 8 11 1029.2 1029.2 -
20/04:00pm 13.7 - - - - SSE 15 22 8 12 1028.8 1028.8 -
20/03:30pm 13.8 - - - - SE 17 22 9 12 1028.5 1028.5 -
20/03:00pm 13.7 - - - - SE 15 22 8 12 1028.8 1028.8 -
20/02:30pm 13.8 - - - - ESE 13 19 7 10 1028.7 1028.7 -
20/02:00pm 13.6 - - - - ESE 11 17 6 9 1028.7 1028.7 -
20/01:30pm 14.0 - - - - ESE 9 13 5 7 1028.6 1028.6 -
20/01:00pm 13.0 - - - - ENE 9 13 5 7 1028.5 1028.5 -
20/12:30pm 13.1 - - - - ENE 7 11 4 6 1028.8 1028.8 -
20/12:00pm 13.0 - - - - NE 7 9 4 5 1028.8 1028.8 -
20/11:30am 13.0 - - - - ENE 7 9 4 5 1028.8 1028.8 -
20/11:00am 12.9 - - - - ENE 7 9 4 5 1028.9 1028.9 -
20/10:30am 13.1 - - - - ENE 7 9 4 5 1028.9 1028.9 -
20/10:00am 12.6 - - - - NE 7 9 4 5 1029.1 1029.1 -
20/09:30am 12.3 - - - - NNE 6 7 3 4 1029.2 1029.2 -
20/09:00am 11.4 - - - - N 4 6 2 3 1029.1 1029.1 -
20/08:30am 9.9 - - - - W 4 7 2 4 1029.1 1029.1 -
20/08:00am 7.4 - - - - WSW 4 7 2 4 1028.7 1028.7 -
20/07:30am 6.1 - - - - WSW 6 13 3 7 1028.3 1028.3 -
20/07:00am 5.4 - - - - WSW 7 11 4 6 1028.0 1028.0 -
20/06:30am 5.7 - - - - W 6 9 3 5 1027.6 1027.6 -
20/06:00am 5.9 - - - - WSW 4 7 2 4 1027.3 1027.3 -
20/05:30am 5.4 - - - - WSW 7 11 4 6 1027.0 1027.0 -
20/05:00am 5.7 - - - - WSW 7 11 4 6 1026.7 1026.7 -
20/04:30am 5.5 - - - - WSW 6 7 3 4 1026.3 1026.3 -
20/04:00am 5.6 - - - - WSW 6 9 3 5 1026.0 1026.0 -
20/03:30am 5.7 - - - - WSW 6 9 3 5 1025.9 1025.9 -
20/03:00am 5.9 - - - - WSW 6 9 3 5 1025.8 1025.8 -
20/02:30am 6.1 - - - - WSW 6 9 3 5 1025.8 1025.8 -
20/02:00am 6.5 - - - - SW 4 6 2 3 1026.0 1026.0 -
20/01:30am 6.7 - - - - SW 6 9 3 5 1026.3 1026.3 -
20/01:00am 7.2 - - - - SW 6 7 3 4 1026.3 1026.3 -
20/12:30am 7.3 - - - - SW 6 7 3 4 1026.3 1026.3 -
20/12:00am 7.5 - - - - WSW 6 9 3 5 1026.3 1026.3 -
 
Date/Time
EST
Temp
°C
App
Temp
°C
Dew
Point
Rel
Hum
%
Delta-T
°C
Wind Press
QNH
hPa
Press
MSL
hPa
Rain
since 9 am
mm
Dir
 
Spd
km/h
Gust
km/h
Spd
kts
Gust
kts
19/11:30pm 8.1 - - - - SW 6 7 3 4 1026.2 1026.2 -
19/11:00pm 8.1 - - - - WSW 7 7 4 4 1026.4 1026.4 -
19/10:30pm 8.9 - - - - SW 7 7 4 4 1026.3 1026.3 -
19/10:00pm 10.0 - - - - SW 6 7 3 4 1026.3 1026.3 -
19/09:30pm 10.4 - - - - SW 4 6 2 3 1026.6 1026.6 -
19/09:00pm 10.6 - - - - SW 4 7 2 4 1026.7 1026.7 -
19/08:30pm 10.9 - - - - SSW 6 9 3 5 1026.5 1026.5 -
19/08:00pm 11.3 - - - - SW 9 13 5 7 1026.5 1026.5 -
19/07:30pm 11.5 - - - - SW 9 11 5 6 1026.2 1026.2 -
19/07:00pm 11.7 - - - - SSW 9 13 5 7 1026.0 1026.0 -
19/06:30pm 12.3 - - - - SSW 11 15 6 8 1025.9 1025.9 -
19/06:00pm 12.8 - - - - SSW 15 20 8 11 1025.6 1025.6 -
19/05:30pm 13.2 - - - - SSW 19 26 10 14 1025.5 1025.5 -
19/05:00pm 13.2 - - - - SW 19 22 10 12 1025.2 1025.2 -
19/04:30pm 13.3 - - - - SW 19 26 10 14 1025.1 1025.1 -
19/04:00pm 13.2 - - - - SSW 20 28 11 15 1025.1 1025.1 -
19/03:30pm 13.2 - - - - SW 19 26 10 14 1025.1 1025.1 -
19/03:00pm 13.0 - - - - SW 20 33 11 18 1025.2 1025.2 -
19/02:30pm 13.2 - - - - SW 20 28 11 15 1025.2 1025.2 -
19/02:00pm 13.4 - - - - SW 20 30 11 16 1025.1 1025.1 -
19/01:30pm 13.7 - - - - SW 17 26 9 14 1025.1 1025.1 -
19/01:00pm 13.5 - - - - SW 19 28 10 15 1025.3 1025.3 -
19/12:30pm 13.3 - - - - SW 17 24 9 13 1025.6 1025.6 -
19/12:00pm 13.2 - - - - SW 19 28 10 15 1025.9 1025.9 -
19/11:30am 12.9 - - - - SW 19 22 10 12 1026.1 1026.1 -
19/11:00am 13.1 - - - - SW 19 28 10 15 1026.1 1026.1 -
19/10:30am 13.2 - - - - SW 17 24 9 13 1026.3 1026.3 -
19/10:00am 13.1 - - - - SW 17 24 9 13 1026.5 1026.5 -
19/09:30am 12.7 - - - - SW 17 22 9 12 1026.3 1026.3 -
19/09:00am 12.4 - - - - SW 9 17 5 9 1026.2 1026.2 -
19/08:30am 11.9 - - - - SW 9 15 5 8 1026.0 1026.0 -
19/08:00am 8.8 - - - - W 6 9 3 5 1026.0 1026.0 -
19/07:30am 8.2 - - - - WNW 11 15 6 8 1025.7 1025.7 -
19/07:00am 8.6 - - - - WNW 13 15 7 8 1025.6 1025.6 -
19/06:30am 8.0 - - - - WSW 6 7 3 4 1025.6 1025.6 -
19/06:00am 8.1 - - - - W 9 13 5 7 1025.3 1025.3 -
19/05:30am 7.9 - - - - W 9 13 5 7 1025.1 1025.1 -
19/05:00am 8.5 - - - - WNW 11 13 6 7 1024.9 1024.9 -
19/04:30am 8.0 - - - - W 9 11 5 6 1024.8 1024.8 -
19/04:00am 7.9 - - - - W 7 11 4 6 1024.8 1024.8 -
19/03:30am 7.6 - - - - W 11 15 6 8 1024.8 1024.8 -
19/03:00am 7.5 - - - - W 9 13 5 7 1024.8 1024.8 -
19/02:30am 7.5 - - - - SW 4 6 2 3 1025.0 1025.0 -
19/02:00am 7.6 - - - - WSW 6 9 3 5 1025.3 1025.3 -
19/01:30am 7.4 - - - - SW 6 9 3 5 1025.4 1025.4 -
19/01:00am 7.5 - - - - WSW 7 9 4 5 1025.7 1025.7 -
19/12:30am 7.8 - - - - SW 6 9 3 5 1025.7 1025.7 -
19/12:00am 7.8 - - - - WSW 6 7 3 4 1025.7 1025.7 -
 
Date/Time
EST
Temp
°C
App
Temp
°C
Dew
Point
Rel
Hum
%
Delta-T
°C
Wind Press
QNH
hPa
Press
MSL
hPa
Rain
since 9 am
mm
Dir
 
Spd
km/h
Gust
km/h
Spd
kts
Gust
kts
18/11:30pm 8.6 - - - - WSW 6 7 3 4 1025.9 1025.9 -
18/11:00pm 8.9 - - - - W 4 6 2 3 1026.2 1026.2 -
18/10:30pm 9.2 - - - - SW 6 9 3 5 1026.2 1026.2 -
18/10:00pm 9.4 - - - - W 9 11 5 6 1026.2 1026.2 -
18/09:30pm 9.8 - - - - WSW 6 7 3 4 1026.1 1026.1 -
18/09:00pm 10.1 - - - - WSW 6 7 3 4 1026.0 1026.0 -
18/08:30pm 10.9 - - - - S 7 9 4 5 1025.9 1025.9 -
18/08:00pm 11.5 - - - - SSW 9 15 5 8 1025.8 1025.8 -
18/07:30pm 11.8 - - - - S 9 11 5 6 1025.6 1025.6 -
18/07:00pm 11.9 - - - - S 13 19 7 10 1025.3 1025.3 -
18/06:30pm 12.0 - - - - S 15 19 8 10 1025.3 1025.3 -
18/06:00pm 12.3 - - - - S 19 26 10 14 1025.3 1025.3 -
18/05:30pm 12.5 - - - - S 17 22 9 12 1025.1 1025.1 -
18/05:00pm 12.4 - - - - S 15 20 8 11 1024.9 1024.9 -
18/04:30pm 12.6 - - - - S 20 30 11 16 1024.7 1024.7 -
18/04:00pm 12.7 - - - - SSW 17 24 9 13 1024.6 1024.6 -
18/03:30pm 12.7 - - - - SSW 20 28 11 15 1024.6 1024.6 -
18/03:00pm 13.0 - - - - SSW 20 28 11 15 1024.6 1024.6 -
18/02:30pm 13.2 - - - - S 22 30 12 16 1024.6 1024.6 -
18/02:00pm 12.7 - - - - S 17 28 9 15 1024.5 1024.5 -
18/01:30pm 12.6 - - - - S 19 28 10 15 1024.6 1024.6 -
18/01:00pm 12.3 - - - - S 22 32 12 17 1024.7 1024.7 -
18/12:30pm 12.4 - - - - SSW 28 37 15 20 1025.0 1025.0 -
18/12:00pm 12.1 - - - - S 28 33 15 18 1024.7 1024.7 -
18/11:30am 12.6 - - - - SSE 22 26 12 14 1024.7 1024.7 -
18/11:00am 12.4 - - - - SSW 20 26 11 14 1024.8 1024.8 -
18/10:30am 11.6 - - - - S 24 37 13 20 1025.0 1025.0 -
18/10:00am 12.5 - - - - SSW 20 28 11 15 1024.7 1024.7 -
18/09:30am 11.8 - - - - SSW 17 22 9 12 1024.7 1024.7 -
18/09:00am 11.6 - - - - SW 17 26 9 14 1024.5 1024.5 -
18/08:30am 11.5 - - - - SW 13 19 7 10 1024.2 1024.2 -
18/08:00am 10.3 - - - - W 9 17 5 9 1023.9 1023.9 -
18/07:30am 9.9 - - - - W 11 15 6 8 1023.6 1023.6 -
18/07:00am 9.9 - - - - WSW 9 15 5 8 1023.4 1023.4 -
18/06:30am 10.2 - - - - SW 15 24 8 13 1023.0 1023.0 -
18/06:00am 10.1 - - - - SSW 15 22 8 12 1022.7 1022.7 -
18/05:30am 10.2 - - - - SSW 17 26 9 14 1022.4 1022.4 -
18/05:00am 10.0 - - - - SW 11 17 6 9 1022.1 1022.1 -
18/04:30am 9.9 - - - - SSW 24 32 13 17 1022.1 1022.1 -
18/04:00am 9.4 - - - - WSW 15 22 8 12 1021.9 1021.9 -
18/03:30am 10.2 - - - - SSW 13 19 7 10 1021.8 1021.8 -
18/03:00am 10.4 - - - - SSW 22 37 12 20 1021.7 1021.7 -
18/02:30am 10.5 - - - - SSW 20 32 11 17 1021.6 1021.6 -
18/02:00am 10.5 - - - - SW 15 37 8 20 1021.7 1021.7 -
18/01:30am 9.8 - - - - S 13 19 7 10 1021.7 1021.7 -
18/01:00am 10.4 - - - - SW 15 26 8 14 1021.9 1021.9 -
18/12:30am 9.8 - - - - W 13 15 7 8 1021.8 1021.8 -
18/12:00am 10.4 - - - - SW 19 32 10 17 1021.9 1021.9 -
 
Date/Time
EST
Temp
°C
App
Temp
°C
Dew
Point
Rel
Hum
%
Delta-T
°C
Wind Press
QNH
hPa
Press
MSL
hPa
Rain
since 9 am
mm
Dir
 
Spd
km/h
Gust
km/h
Spd
kts
Gust
kts
17/11:30pm 9.8 - - - - WSW 11 17 6 9 1021.9 1021.9 -
17/11:00pm 10.4 - - - - WSW 19 33 10 18 1021.9 1021.9 -
17/10:30pm 10.5 - - - - SW 24 33 13 18 1021.7 1021.7 -
17/10:00pm 9.8 - - - - WSW 22 37 12 20 1021.6 1021.6 -

Other Formats:

Comma delimited format used in spreadsheet applications
http://www.bom.gov.au/fwo/IDV60801/IDV60801.95826.axf

JavaScript Object Notation format (JSON) in row-major order
http://www.bom.gov.au/fwo/IDV60801/IDV60801.95826.json